Pittenweem, United Kingdom
Current Conditions -  °F | °C
As of 12:14 PM on Wednesday 28 Jan 2015 (Local Time) from EGQL Reporting Station
Broken Clouds Broken Clouds  
Wind Chill: 25°   Ceiling: 9000
Heat Index: 37°   Visibility: 6mi
Dew Point: 32°   Wind: 28mph
Humidity: 81%   Direction: 280°W
Pressure: 29.12"   Gusts: NA
Location:  56.21°N, 2.73°W
Report Text: EGQL 281214Z 28024KT 9999 FEW030 BKN090 03/M00 Q0986 BLU
Loading
Personal Weather Stations






























Interactive Weather Map New forecast layout! Learn more

10-Day Weather Forecast

Advertisements
Track Severe Weather on mobile